CSZ9507 ZGSZ-ZSSS
Flight info
| Callsign | CSZ9507 |
|---|---|
| Flight time | N/A |
| Altitude | 37100 |
| Route | IDUMA W22 SHL G471 PLT A599 ELNEX G204 JTN |
| Aircraft | B38M/M-SDE2E3FGHIRWZ/LB1 |
Departure
| Time | 2026-04-14 15:06 |
|---|---|
| Airport | Shenzhen Bao'an International Airport (ZGSZ) |
Arrival
| Time | N/A |
|---|---|
| Airport | Shanghai Hongqiao International Airport (ZSSS) |
| Time | Latitude | Longitude | Altitude | Speed | Heading |
|---|---|---|---|---|---|
| 2026-04-14 14:38 | 22.63494 | 113.80792 | -10 ft | 0 kts | 188° |
| 2026-04-14 14:39 | 22.63495 | 113.80792 | 18 ft | 0 kts | 188° |
| 2026-04-14 14:44 | 22.63497 | 113.80792 | 18 ft | 2 kts | 188° |
| 2026-04-14 14:44 | 22.63513 | 113.80795 | 18 ft | 2 kts | 188° |
| 2026-04-14 14:44 | 22.63529 | 113.80797 | 19 ft | 2 kts | 187° |
| 2026-04-14 14:45 | 22.63545 | 113.80794 | 19 ft | 2 kts | 142° |
| 2026-04-14 14:45 | 22.63558 | 113.80768 | 18 ft | 0 kts | 72° |
| 2026-04-14 14:56 | 22.63558 | 113.80767 | 18 ft | 0 kts | 71° |
| 2026-04-14 15:01 | 22.63562 | 113.80778 | 18 ft | 5 kts | 69° |
| 2026-04-14 15:01 | 22.63611 | 113.80852 | 19 ft | 18 kts | 60° |
| 2026-04-14 15:01 | 22.63662 | 113.80967 | 18 ft | 13 kts | 40° |
| 2026-04-14 15:01 | 22.63745 | 113.80945 | 18 ft | 14 kts | 334° |
| 2026-04-14 15:02 | 22.63845 | 113.80889 | 18 ft | 18 kts | 332° |
| 2026-04-14 15:02 | 22.63963 | 113.80824 | 18 ft | 20 kts | 333° |
| 2026-04-14 15:02 | 22.64093 | 113.80754 | 19 ft | 23 kts | 333° |
| 2026-04-14 15:02 | 22.64244 | 113.80670 | 18 ft | 25 kts | 333° |
| 2026-04-14 15:03 | 22.64407 | 113.80581 | 18 ft | 27 kts | 333° |
| 2026-04-14 15:03 | 22.64578 | 113.80486 | 18 ft | 28 kts | 334° |
| 2026-04-14 15:03 | 22.64752 | 113.80391 | 18 ft | 23 kts | 333° |
| 2026-04-14 15:03 | 22.64899 | 113.80310 | 18 ft | 24 kts | 333° |
| 2026-04-14 15:04 | 22.65055 | 113.80223 | 18 ft | 26 kts | 333° |
| 2026-04-14 15:04 | 22.65173 | 113.80159 | 18 ft | 11 kts | 339° |
| 2026-04-14 15:04 | 22.65217 | 113.80198 | 19 ft | 10 kts | 64° |
| 2026-04-14 15:04 | 22.65252 | 113.80274 | 18 ft | 14 kts | 63° |
| 2026-04-14 15:05 | 22.65268 | 113.80352 | 18 ft | 6 kts | 127° |
| 2026-04-14 15:05 | 22.65204 | 113.80369 | 18 ft | 20 kts | 161° |
| 2026-04-14 15:05 | 22.64827 | 113.80568 | 18 ft | 99 kts | 153° |
| 2026-04-14 15:05 | 22.64008 | 113.81015 | 29 ft | 160 kts | 154° |
| 2026-04-14 15:06 | 22.62954 | 113.81584 | 526 ft | 177 kts | 154° |
| 2026-04-14 15:06 | 22.61845 | 113.82167 | 1234 ft | 178 kts | 156° |
| 2026-04-14 15:06 | 22.60733 | 113.82775 | 1964 ft | 185 kts | 155° |
| 2026-04-14 15:06 | 22.59509 | 113.83459 | 2504 ft | 211 kts | 155° |
| 2026-04-14 15:07 | 22.58153 | 113.84212 | 2943 ft | 226 kts | 155° |
| 2026-04-14 15:07 | 22.56717 | 113.85004 | 3502 ft | 235 kts | 156° |
| 2026-04-14 15:07 | 22.55225 | 113.85823 | 4073 ft | 245 kts | 156° |
| 2026-04-14 15:07 | 22.53694 | 113.86662 | 4775 ft | 249 kts | 157° |
| 2026-04-14 15:08 | 22.52153 | 113.87559 | 5422 ft | 256 kts | 148° |
| 2026-04-14 15:08 | 22.50946 | 113.89017 | 5679 ft | 267 kts | 119° |
| 2026-04-14 15:08 | 22.50557 | 113.90987 | 5842 ft | 275 kts | 85° |
| 2026-04-14 15:08 | 22.51117 | 113.92945 | 6435 ft | 276 kts | 62° |
| 2026-04-14 15:09 | 22.52008 | 113.94793 | 6692 ft | 282 kts | 63° |
| 2026-04-14 15:09 | 22.52896 | 113.96680 | 6802 ft | 282 kts | 63° |
| 2026-04-14 15:09 | 22.53499 | 113.97958 | 6860 ft | 282 kts | 62° |
| 2026-04-14 15:09 | 22.54796 | 114.00418 | 6876 ft | 292 kts | 47° |
| 2026-04-14 15:10 | 22.56429 | 114.01698 | 6873 ft | 290 kts | 17° |
| 2026-04-14 15:10 | 22.57744 | 114.02046 | 6874 ft | 288 kts | 2° |
| 2026-04-14 15:10 | 22.59753 | 114.02240 | 6892 ft | 293 kts | 3° |
| 2026-04-14 15:10 | 22.61783 | 114.02469 | 6888 ft | 293 kts | 2° |
| 2026-04-14 15:11 | 22.63811 | 114.02693 | 6891 ft | 292 kts | 2° |
| 2026-04-14 15:11 | 22.65811 | 114.02912 | 6903 ft | 291 kts | 2° |
| 2026-04-14 15:11 | 22.67807 | 114.03128 | 6894 ft | 293 kts | 2° |
| 2026-04-14 15:11 | 22.69827 | 114.03346 | 6731 ft | 286 kts | 2° |
| 2026-04-14 15:12 | 22.71805 | 114.03676 | 5970 ft | 292 kts | 16° |
| 2026-04-14 15:12 | 22.73534 | 114.04791 | 5355 ft | 291 kts | 43° |
| 2026-04-14 15:12 | 22.74651 | 114.06590 | 4815 ft | 285 kts | 71° |
| 2026-04-14 15:12 | 22.75251 | 114.08624 | 4952 ft | 288 kts | 71° |
| 2026-04-14 15:13 | 22.75928 | 114.10685 | 4902 ft | 291 kts | 70° |
| 2026-04-14 15:13 | 22.76489 | 114.12781 | 4878 ft | 290 kts | 86° |
| 2026-04-14 15:13 | 22.76162 | 114.14886 | 4875 ft | 283 kts | 120° |
| 2026-04-14 15:13 | 22.74881 | 114.16422 | 4881 ft | 273 kts | 154° |
| 2026-04-14 15:14 | 22.73122 | 114.16930 | 4881 ft | 264 kts | 186° |
| 2026-04-14 15:14 | 22.71392 | 114.16384 | 4884 ft | 259 kts | 214° |
| 2026-04-14 15:14 | 22.70137 | 114.15014 | 4883 ft | 258 kts | 240° |
| 2026-04-14 15:14 | 22.69550 | 114.13188 | 4901 ft | 259 kts | 262° |
| 2026-04-14 15:15 | 22.69588 | 114.11237 | 4907 ft | 261 kts | 277° |
| 2026-04-14 15:15 | 22.69909 | 114.09295 | 4905 ft | 262 kts | 279° |
| 2026-04-14 15:15 | 22.70264 | 114.07355 | 4898 ft | 262 kts | 279° |
| 2026-04-14 15:15 | 22.70675 | 114.05427 | 4908 ft | 263 kts | 281° |
| 2026-04-14 15:16 | 22.71093 | 114.03503 | 4900 ft | 263 kts | 281° |
| 2026-04-14 15:16 | 22.71509 | 114.01573 | 4902 ft | 263 kts | 281° |
| 2026-04-14 15:16 | 22.71924 | 113.99646 | 4907 ft | 263 kts | 281° |
| 2026-04-14 15:16 | 22.72330 | 113.97746 | 4892 ft | 262 kts | 280° |
| 2026-04-14 15:17 | 22.72743 | 113.95823 | 4916 ft | 263 kts | 281° |
| 2026-04-14 15:17 | 22.73157 | 113.93893 | 4905 ft | 263 kts | 281° |
| 2026-04-14 15:17 | 22.73569 | 113.91966 | 4907 ft | 262 kts | 281° |
| 2026-04-14 15:17 | 22.73981 | 113.90040 | 4907 ft | 263 kts | 281° |
| 2026-04-14 15:18 | 22.74394 | 113.88109 | 4903 ft | 263 kts | 281° |
| 2026-04-14 15:18 | 22.75098 | 113.86286 | 4888 ft | 266 kts | 304° |
| 2026-04-14 15:18 | 22.76501 | 113.84962 | 4902 ft | 273 kts | 327° |
| 2026-04-14 15:18 | 22.78195 | 113.84001 | 4912 ft | 275 kts | 329° |
| 2026-04-14 15:19 | 22.79896 | 113.83044 | 4897 ft | 275 kts | 329° |
| 2026-04-14 15:19 | 22.81601 | 113.82093 | 4913 ft | 277 kts | 329° |
| 2026-04-14 15:19 | 22.83319 | 113.81139 | 5122 ft | 278 kts | 330° |
| 2026-04-14 15:19 | 22.85010 | 113.80192 | 4852 ft | 275 kts | 330° |
| 2026-04-14 15:20 | 22.86711 | 113.79237 | 4515 ft | 274 kts | 330° |
| 2026-04-14 15:20 | 22.88397 | 113.78284 | 4207 ft | 273 kts | 328° |
| 2026-04-14 15:20 | 22.89790 | 113.76958 | 3887 ft | 261 kts | 302° |
| 2026-04-14 15:20 | 22.90460 | 113.75212 | 3531 ft | 244 kts | 277° |
| 2026-04-14 15:21 | 22.90396 | 113.73471 | 3369 ft | 221 kts | 250° |
| 2026-04-14 15:21 | 22.89793 | 113.71981 | 3428 ft | 216 kts | 243° |
| 2026-04-14 15:21 | 22.89089 | 113.70537 | 3357 ft | 216 kts | 231° |
| 2026-04-14 15:21 | 22.87929 | 113.69561 | 3296 ft | 213 kts | 202° |
| 2026-04-14 15:22 | 22.86470 | 113.69306 | 3299 ft | 216 kts | 177° |
| 2026-04-14 15:22 | 22.85005 | 113.69729 | 3302 ft | 219 kts | 159° |
| 2026-04-14 15:22 | 22.83689 | 113.70370 | 3280 ft | 203 kts | 158° |
| 2026-04-14 15:22 | 22.82425 | 113.71009 | 3292 ft | 198 kts | 159° |
| 2026-04-14 15:23 | 22.81158 | 113.71610 | 3310 ft | 200 kts | 159° |
| 2026-04-14 15:23 | 22.79928 | 113.72238 | 3075 ft | 188 kts | 157° |
| 2026-04-14 15:23 | 22.78797 | 113.72857 | 2853 ft | 176 kts | 156° |
| 2026-04-14 15:23 | 22.77716 | 113.73454 | 2642 ft | 173 kts | 156° |
| 2026-04-14 15:24 | 22.76649 | 113.74043 | 2436 ft | 171 kts | 156° |
| 2026-04-14 15:24 | 22.75591 | 113.74627 | 2215 ft | 170 kts | 157° |
| 2026-04-14 15:24 | 22.74537 | 113.75208 | 2006 ft | 170 kts | 156° |
| 2026-04-14 15:24 | 22.73482 | 113.75791 | 1794 ft | 169 kts | 155° |
| 2026-04-14 15:25 | 22.72481 | 113.76345 | 1630 ft | 154 kts | 156° |
| 2026-04-14 15:25 | 22.71543 | 113.76861 | 1403 ft | 149 kts | 155° |
| 2026-04-14 15:25 | 22.70621 | 113.77369 | 1205 ft | 149 kts | 155° |
| 2026-04-14 15:25 | 22.69699 | 113.77879 | 998 ft | 149 kts | 154° |
| 2026-04-14 15:26 | 22.68778 | 113.78383 | 838 ft | 147 kts | 154° |
| 2026-04-14 15:26 | 22.67864 | 113.78888 | 620 ft | 148 kts | 153° |
| 2026-04-14 15:26 | 22.66954 | 113.79390 | 417 ft | 149 kts | 153° |
| 2026-04-14 15:26 | 22.66041 | 113.79899 | 226 ft | 147 kts | 154° |
| 2026-04-14 15:27 | 22.65132 | 113.80399 | 30 ft | 145 kts | 153° |
| 2026-04-14 15:27 | 22.64327 | 113.80841 | 18 ft | 103 kts | 153° |
| 2026-04-14 15:27 | 22.63882 | 113.81086 | 18 ft | 46 kts | 153° |
| 2026-04-14 15:27 | 22.63632 | 113.81218 | 18 ft | 27 kts | 159° |
| 2026-04-14 15:28 | 22.63465 | 113.81251 | 18 ft | 14 kts | 180° |
| 2026-04-14 15:28 | 22.63364 | 113.81248 | 18 ft | 15 kts | 181° |
| 2026-04-14 15:28 | 22.63321 | 113.81220 | 18 ft | 7 kts | 242° |